sensor_id;sensor_type;location;lat;lon;timestamp;pressure;altitude;pressure_sealevel;temperature;humidity
13765;BME280;6953;48.810;9.204;2023-09-07T00:00:37;99060.16;;;17.15;100.00
13765;BME280;6953;48.810;9.204;2023-09-07T00:03:03;98794.47;;;15.71;100.00
13765;BME280;6953;48.810;9.204;2023-09-07T00:05:29;99022.00;;;17.05;100.00
13765;BME280;6953;48.810;9.204;2023-09-07T00:07:54;99040.47;;;17.07;100.00
13765;BME280;6953;48.810;9.204;2023-09-07T00:10:21;99036.69;;;16.98;100.00
13765;BME280;6953;48.810;9.204;2023-09-07T00:12:46;99053.47;;;16.86;100.00
13765;BME280;6953;48.810;9.204;2023-09-07T00:15:11;99039.09;;;16.78;100.00
13765;BME280;6953;48.810;9.204;2023-09-07T00:17:37;98998.63;;;16.64;100.00
13765;BME280;6953;48.810;9.204;2023-09-07T00:20:02;98995.56;;;16.57;100.00
13765;BME280;6953;48.810;9.204;2023-09-07T00:22:39;98823.63;;;15.47;100.00
13765;BME280;6953;48.810;9.204;2023-09-07T00:25:05;98702.59;;;14.77;100.00
13765;BME280;6953;48.810;9.204;2023-09-07T00:27:32;99039.50;;;16.72;100.00
13765;BME280;6953;48.810;9.204;2023-09-07T00:30:01;99051.75;;;16.62;100.00
13765;BME280;6953;48.810;9.204;2023-09-07T00:32:26;99057.78;;;16.64;100.00
13765;BME280;6953;48.810;9.204;2023-09-07T00:34:51;99065.94;;;16.61;100.00
13765;BME280;6953;48.810;9.204;2023-09-07T00:37:17;99010.03;;;16.28;100.00
13765;BME280;6953;48.810;9.204;2023-09-07T00:39:42;99038.91;;;16.56;100.00
13765;BME280;6953;48.810;9.204;2023-09-07T00:42:07;99071.16;;;16.50;100.00
13765;BME280;6953;48.810;9.204;2023-09-07T00:44:33;98975.84;;;16.13;100.00
13765;BME280;6953;48.810;9.204;2023-09-07T00:46:58;99037.16;;;16.44;100.00
13765;BME280;6953;48.810;9.204;2023-09-07T00:49:24;98787.34;;;14.99;100.00
13765;BME280;6953;48.810;9.204;2023-09-07T00:51:50;99010.25;;;16.25;100.00
13765;BME280;6953;48.810;9.204;2023-09-07T00:54:16;98760.91;;;14.74;100.00
13765;BME280;6953;48.810;9.204;2023-09-07T00:56:41;99044.78;;;16.36;100.00
13765;BME280;6953;48.810;9.204;2023-09-07T00:59:07;99039.41;;;16.38;100.00
13765;BME280;6953;48.810;9.204;2023-09-07T01:01:35;99054.09;;;16.29;100.00
13765;BME280;6953;48.810;9.204;2023-09-07T01:04:00;99049.47;;;16.33;100.00
13765;BME280;6953;48.810;9.204;2023-09-07T01:06:29;98862.97;;;15.26;100.00
13765;BME280;6953;48.810;9.204;2023-09-07T01:08:57;99034.91;;;16.26;100.00
13765;BME280;6953;48.810;9.204;2023-09-07T01:11:25;99044.25;;;16.31;100.00
13765;BME280;6953;48.810;9.204;2023-09-07T01:13:51;98858.72;;;15.24;100.00
13765;BME280;6953;48.810;9.204;2023-09-07T01:16:21;99018.72;;;16.18;100.00
13765;BME280;6953;48.810;9.204;2023-09-07T01:18:47;99020.19;;;16.22;100.00
13765;BME280;6953;48.810;9.204;2023-09-07T01:21:13;99044.47;;;16.28;100.00
13765;BME280;6953;48.810;9.204;2023-09-07T01:23:43;99041.81;;;16.28;100.00
13765;BME280;6953;48.810;9.204;2023-09-07T01:26:10;98789.66;;;14.78;100.00
13765;BME280;6953;48.810;9.204;2023-09-07T01:28:36;99043.06;;;16.23;100.00
13765;BME280;6953;48.810;9.204;2023-09-07T01:31:04;99020.31;;;16.08;100.00
13765;BME280;6953;48.810;9.204;2023-09-07T01:33:31;99033.13;;;16.14;100.00
13765;BME280;6953;48.810;9.204;2023-09-07T01:35:56;99038.44;;;16.14;100.00
13765;BME280;6953;48.810;9.204;2023-09-07T01:38:22;99024.97;;;16.04;100.00
13765;BME280;6953;48.810;9.204;2023-09-07T01:40:47;99071.34;;;16.10;100.00
13765;BME280;6953;48.810;9.204;2023-09-07T01:43:13;99027.63;;;16.04;100.00
13765;BME280;6953;48.810;9.204;2023-09-07T01:45:38;99034.09;;;16.00;100.00
13765;BME280;6953;48.810;9.204;2023-09-07T01:48:07;98994.38;;;15.75;100.00
13765;BME280;6953;48.810;9.204;2023-09-07T01:50:33;99005.81;;;15.76;100.00
13765;BME280;6953;48.810;9.204;2023-09-07T01:52:59;98780.06;;;14.39;100.00
13765;BME280;6953;48.810;9.204;2023-09-07T01:55:27;99040.94;;;15.90;100.00
13765;BME280;6953;48.810;9.204;2023-09-07T01:57:52;99043.81;;;15.87;100.00
13765;BME280;6953;48.810;9.204;2023-09-07T02:00:17;99038.19;;;15.79;100.00
13765;BME280;6953;48.810;9.204;2023-09-07T02:02:42;99049.31;;;15.84;100.00
13765;BME280;6953;48.810;9.204;2023-09-07T02:05:08;99042.41;;;15.82;100.00
13765;BME280;6953;48.810;9.204;2023-09-07T02:07:36;98995.28;;;15.50;100.00
13765;BME280;6953;48.810;9.204;2023-09-07T02:10:02;99027.06;;;15.62;100.00
13765;BME280;6953;48.810;9.204;2023-09-07T02:12:28;99045.78;;;15.71;100.00
13765;BME280;6953;48.810;9.204;2023-09-07T02:14:54;99017.84;;;15.55;100.00
13765;BME280;6953;48.810;9.204;2023-09-07T02:17:20;98951.97;;;15.13;100.00
13765;BME280;6953;48.810;9.204;2023-09-07T02:19:46;99052.16;;;15.69;100.00
13765;BME280;6953;48.810;9.204;2023-09-07T02:22:11;99050.47;;;15.68;100.00
13765;BME280;6953;48.810;9.204;2023-09-07T02:24:36;99049.50;;;15.69;100.00
13765;BME280;6953;48.810;9.204;2023-09-07T02:27:02;98793.75;;;14.19;100.00
13765;BME280;6953;48.810;9.204;2023-09-07T02:29:27;99046.44;;;15.63;100.00
13765;BME280;6953;48.810;9.204;2023-09-07T02:31:52;99043.88;;;15.61;100.00
13765;BME280;6953;48.810;9.204;2023-09-07T02:34:18;98974.69;;;15.16;100.00
13765;BME280;6953;48.810;9.204;2023-09-07T02:36:43;99043.38;;;15.56;100.00
13765;BME280;6953;48.810;9.204;2023-09-07T02:39:08;98786.91;;;14.02;100.00
13765;BME280;6953;48.810;9.204;2023-09-07T02:41:33;98984.63;;;15.12;100.00
13765;BME280;6953;48.810;9.204;2023-09-07T02:43:59;99037.09;;;15.45;100.00
13765;BME280;6953;48.810;9.204;2023-09-07T02:46:24;99026.28;;;15.35;100.00
13765;BME280;6953;48.810;9.204;2023-09-07T02:48:49;99046.72;;;15.46;100.00
13765;BME280;6953;48.810;9.204;2023-09-07T02:51:15;99011.09;;;15.25;100.00
13765;BME280;6953;48.810;9.204;2023-09-07T02:53:40;99047.66;;;15.45;100.00
13765;BME280;6953;48.810;9.204;2023-09-07T02:56:05;99086.38;;;15.46;100.00
13765;BME280;6953;48.810;9.204;2023-09-07T02:58:32;98764.25;;;13.86;100.00
13765;BME280;6953;48.810;9.204;2023-09-07T03:00:58;99012.03;;;15.24;100.00
13765;BME280;6953;48.810;9.204;2023-09-07T03:03:24;99037.59;;;15.37;100.00
13765;BME280;6953;48.810;9.204;2023-09-07T03:05:49;98949.75;;;14.81;100.00
13765;BME280;6953;48.810;9.204;2023-09-07T03:08:14;98862.59;;;14.28;100.00
13765;BME280;6953;48.810;9.204;2023-09-07T03:10:39;98841.16;;;14.20;100.00
13765;BME280;6953;48.810;9.204;2023-09-07T03:13:06;98850.34;;;14.27;100.00
13765;BME280;6953;48.810;9.204;2023-09-07T03:15:33;99026.47;;;15.32;100.00
13765;BME280;6953;48.810;9.204;2023-09-07T03:17:59;99023.84;;;15.32;100.00
13765;BME280;6953;48.810;9.204;2023-09-07T03:20:24;98836.63;;;14.22;100.00
13765;BME280;6953;48.810;9.204;2023-09-07T03:22:49;99023.91;;;15.31;100.00
13765;BME280;6953;48.810;9.204;2023-09-07T03:25:15;99030.63;;;15.36;100.00
13765;BME280;6953;48.810;9.204;2023-09-07T03:27:40;99029.97;;;15.33;100.00
13765;BME280;6953;48.810;9.204;2023-09-07T03:30:06;99023.28;;;15.27;100.00
13765;BME280;6953;48.810;9.204;2023-09-07T03:32:33;99031.34;;;15.26;100.00
13765;BME280;6953;48.810;9.204;2023-09-07T03:34:59;99029.81;;;15.22;100.00
13765;BME280;6953;48.810;9.204;2023-09-07T03:37:25;98873.56;;;14.22;100.00
13765;BME280;6953;48.810;9.204;2023-09-07T03:39:50;99034.84;;;15.12;100.00
13765;BME280;6953;48.810;9.204;2023-09-07T03:42:16;99018.44;;;15.07;100.00
13765;BME280;6953;48.810;9.204;2023-09-07T03:44:41;99055.63;;;15.04;100.00
13765;BME280;6953;48.810;9.204;2023-09-07T03:47:07;98983.84;;;14.71;100.00
13765;BME280;6953;48.810;9.204;2023-09-07T03:49:32;99023.47;;;14.98;100.00
13765;BME280;6953;48.810;9.204;2023-09-07T03:51:57;99030.44;;;14.99;100.00
13765;BME280;6953;48.810;9.204;2023-09-07T03:54:22;98986.56;;;14.70;100.00
13765;BME280;6953;48.810;9.204;2023-09-07T03:56:48;99026.22;;;14.96;100.00
13765;BME280;6953;48.810;9.204;2023-09-07T03:59:13;99008.31;;;14.87;100.00
13765;BME280;6953;48.810;9.204;2023-09-07T04:01:38;98992.94;;;14.54;100.00
13765;BME280;6953;48.810;9.204;2023-09-07T04:04:04;98762.09;;;13.38;100.00
13765;BME280;6953;48.810;9.204;2023-09-07T04:06:29;99018.03;;;14.87;100.00
13765;BME280;6953;48.810;9.204;2023-09-07T04:08:55;99002.47;;;14.82;100.00
13765;BME280;6953;48.810;9.204;2023-09-07T04:11:20;98771.81;;;13.38;100.00
13765;BME280;6953;48.810;9.204;2023-09-07T04:13:46;98958.25;;;14.46;100.00
13765;BME280;6953;48.810;9.204;2023-09-07T04:16:11;99010.06;;;14.74;100.00
13765;BME280;6953;48.810;9.204;2023-09-07T04:18:36;98795.88;;;13.46;100.00
13765;BME280;6953;48.810;9.204;2023-09-07T04:21:08;98842.56;;;13.57;100.00
13765;BME280;6953;48.810;9.204;2023-09-07T04:23:34;98989.13;;;14.57;100.00
13765;BME280;6953;48.810;9.204;2023-09-07T04:26:07;99043.03;;;14.81;100.00
13765;BME280;6953;48.810;9.204;2023-09-07T04:28:33;99059.00;;;14.80;100.00
13765;BME280;6953;48.810;9.204;2023-09-07T04:30:58;99030.78;;;14.80;100.00
13765;BME280;6953;48.810;9.204;2023-09-07T04:33:24;99016.28;;;14.73;100.00
13765;BME280;6953;48.810;9.204;2023-09-07T04:35:49;99032.59;;;14.80;100.00
13765;BME280;6953;48.810;9.204;2023-09-07T04:38:14;99029.09;;;14.79;100.00
13765;BME280;6953;48.810;9.204;2023-09-07T04:40:39;98956.50;;;14.32;100.00
13765;BME280;6953;48.810;9.204;2023-09-07T04:43:05;99034.47;;;14.78;100.00
13765;BME280;6953;48.810;9.204;2023-09-07T04:45:30;99033.41;;;14.80;100.00
13765;BME280;6953;48.810;9.204;2023-09-07T04:47:55;99040.81;;;14.75;100.00
13765;BME280;6953;48.810;9.204;2023-09-07T04:50:20;99034.78;;;14.73;100.00
13765;BME280;6953;48.810;9.204;2023-09-07T04:52:46;99030.53;;;14.71;100.00
13765;BME280;6953;48.810;9.204;2023-09-07T04:55:11;99044.66;;;14.70;100.00
13765;BME280;6953;48.810;9.204;2023-09-07T04:57:36;99039.38;;;14.70;100.00
13765;BME280;6953;48.810;9.204;2023-09-07T05:00:03;99031.38;;;14.71;100.00
13765;BME280;6953;48.810;9.204;2023-09-07T05:02:30;99040.72;;;14.77;100.00
13765;BME280;6953;48.810;9.204;2023-09-07T05:04:55;99031.66;;;14.81;100.00
13765;BME280;6953;48.810;9.204;2023-09-07T05:07:20;99040.13;;;14.86;100.00
13765;BME280;6953;48.810;9.204;2023-09-07T05:09:45;99041.72;;;14.88;100.00
13765;BME280;6953;48.810;9.204;2023-09-07T05:12:11;98817.25;;;13.55;100.00
13765;BME280;6953;48.810;9.204;2023-09-07T05:14:36;99062.34;;;14.96;100.00
13765;BME280;6953;48.810;9.204;2023-09-07T05:17:01;99056.00;;;14.98;100.00
13765;BME280;6953;48.810;9.204;2023-09-07T05:19:27;99017.78;;;14.77;100.00
13765;BME280;6953;48.810;9.204;2023-09-07T05:21:52;99063.16;;;15.10;100.00
13765;BME280;6953;48.810;9.204;2023-09-07T05:24:18;99029.50;;;15.00;100.00
13765;BME280;6953;48.810;9.204;2023-09-07T05:26:43;99056.31;;;15.20;100.00
13765;BME280;6953;48.810;9.204;2023-09-07T05:29:09;99060.56;;;15.23;100.00
13765;BME280;6953;48.810;9.204;2023-09-07T05:31:35;99050.31;;;15.18;100.00
13765;BME280;6953;48.810;9.204;2023-09-07T05:34:00;99063.69;;;15.29;100.00
13765;BME280;6953;48.810;9.204;2023-09-07T05:36:26;99072.50;;;15.42;100.00
13765;BME280;6953;48.810;9.204;2023-09-07T05:38:52;99057.38;;;15.44;100.00
13765;BME280;6953;48.810;9.204;2023-09-07T05:41:18;99095.75;;;15.63;100.00
13765;BME280;6953;48.810;9.204;2023-09-07T05:43:49;99020.91;;;15.49;100.00
13765;BME280;6953;48.810;9.204;2023-09-07T05:46:17;99071.13;;;15.88;100.00
13765;BME280;6953;48.810;9.204;2023-09-07T05:48:42;98941.25;;;15.29;100.00
13765;BME280;6953;48.810;9.204;2023-09-07T05:51:08;99051.44;;;16.04;100.00
13765;BME280;6953;48.810;9.204;2023-09-07T05:53:33;98833.00;;;14.88;100.00
13765;BME280;6953;48.810;9.204;2023-09-07T05:55:58;99037.75;;;16.23;100.00
13765;BME280;6953;48.810;9.204;2023-09-07T05:58:24;99064.47;;;16.32;100.00
13765;BME280;6953;48.810;9.204;2023-09-07T06:00:49;99067.50;;;16.76;100.00
13765;BME280;6953;48.810;9.204;2023-09-07T06:03:14;99066.94;;;17.66;100.00
13765;BME280;6953;48.810;9.204;2023-09-07T06:05:40;98842.81;;;17.59;100.00
13765;BME280;6953;48.810;9.204;2023-09-07T06:08:06;99012.38;;;19.78;100.00
13765;BME280;6953;48.810;9.204;2023-09-07T06:10:31;99055.16;;;21.26;98.51
13765;BME280;6953;48.810;9.204;2023-09-07T06:12:57;99067.19;;;22.62;88.93
13765;BME280;6953;48.810;9.204;2023-09-07T06:15:23;99081.59;;;23.77;79.01
13765;BME280;6953;48.810;9.204;2023-09-07T06:17:48;98888.25;;;23.89;74.77
13765;BME280;6953;48.810;9.204;2023-09-07T06:20:15;98866.50;;;24.91;70.46
13765;BME280;6953;48.810;9.204;2023-09-07T06:22:40;99049.78;;;26.77;64.57
13765;BME280;6953;48.810;9.204;2023-09-07T06:25:06;99062.22;;;27.25;60.39
13765;BME280;6953;48.810;9.204;2023-09-07T06:27:31;99052.03;;;27.73;54.94
13765;BME280;6953;48.810;9.204;2023-09-07T06:29:59;99063.91;;;28.46;53.12
13765;BME280;6953;48.810;9.204;2023-09-07T06:32:25;98984.97;;;28.72;50.61
13765;BME280;6953;48.810;9.204;2023-09-07T06:34:50;98933.56;;;29.01;47.34
13765;BME280;6953;48.810;9.204;2023-09-07T06:37:16;99056.47;;;29.69;46.93
13765;BME280;6953;48.810;9.204;2023-09-07T06:39:42;98915.91;;;28.84;46.45
13765;BME280;6953;48.810;9.204;2023-09-07T06:42:08;99022.94;;;29.85;44.48
13765;BME280;6953;48.810;9.204;2023-09-07T06:44:35;99052.94;;;30.04;44.24
13765;BME280;6953;48.810;9.204;2023-09-07T06:47:00;99056.47;;;30.05;43.34
13765;BME280;6953;48.810;9.204;2023-09-07T06:49:25;99057.72;;;30.30;42.54
13765;BME280;6953;48.810;9.204;2023-09-07T06:51:53;99086.13;;;30.88;41.35
13765;BME280;6953;48.810;9.204;2023-09-07T06:54:18;98911.06;;;30.67;38.17
13765;BME280;6953;48.810;9.204;2023-09-07T06:56:43;99080.56;;;31.90;37.22
13765;BME280;6953;48.810;9.204;2023-09-07T06:59:09;99089.44;;;32.18;36.07
13765;BME280;6953;48.810;9.204;2023-09-07T07:01:34;99090.00;;;32.07;36.37
13765;BME280;6953;48.810;9.204;2023-09-07T07:04:00;98933.06;;;30.91;36.66
13765;BME280;6953;48.810;9.204;2023-09-07T07:06:26;98975.56;;;31.24;36.02
13765;BME280;6953;48.810;9.204;2023-09-07T07:08:51;99046.06;;;31.78;35.74
13765;BME280;6953;48.810;9.204;2023-09-07T07:11:17;99087.34;;;32.59;34.38
13765;BME280;6953;48.810;9.204;2023-09-07T07:13:42;99091.66;;;33.24;33.25
13765;BME280;6953;48.810;9.204;2023-09-07T07:16:07;99091.84;;;33.80;32.20
13765;BME280;6953;48.810;9.204;2023-09-07T07:18:33;99077.88;;;34.62;30.38
13765;BME280;6953;48.810;9.204;2023-09-07T07:20:58;99106.97;;;35.71;29.07
13765;BME280;6953;48.810;9.204;2023-09-07T07:23:23;98987.13;;;35.74;27.04
13765;BME280;6953;48.810;9.204;2023-09-07T07:25:48;99108.09;;;37.04;26.80
13765;BME280;6953;48.810;9.204;2023-09-07T07:28:14;99107.19;;;37.60;26.26
13765;BME280;6953;48.810;9.204;2023-09-07T07:30:40;99063.66;;;37.64;25.50
13765;BME280;6953;48.810;9.204;2023-09-07T07:33:06;99086.97;;;37.27;25.79
13765;BME280;6953;48.810;9.204;2023-09-07T07:35:33;99082.81;;;37.48;25.48
13765;BME280;6953;48.810;9.204;2023-09-07T07:37:59;99118.16;;;38.28;24.64
13765;BME280;6953;48.810;9.204;2023-09-07T07:40:25;98991.75;;;37.18;25.38
13765;BME280;6953;48.810;9.204;2023-09-07T07:42:52;98953.59;;;36.77;25.64
13765;BME280;6953;48.810;9.204;2023-09-07T07:45:17;99098.75;;;37.90;24.72
13765;BME280;6953;48.810;9.204;2023-09-07T07:47:47;99103.91;;;38.59;23.79
13765;BME280;6953;48.810;9.204;2023-09-07T07:50:14;98951.13;;;38.15;23.66
13765;BME280;6953;48.810;9.204;2023-09-07T07:52:39;98983.63;;;38.06;23.85
13765;BME280;6953;48.810;9.204;2023-09-07T07:55:06;99106.16;;;38.62;24.34
13765;BME280;6953;48.810;9.204;2023-09-07T07:57:31;99106.34;;;38.44;24.27
13765;BME280;6953;48.810;9.204;2023-09-07T07:59:57;99085.72;;;38.69;24.29
13765;BME280;6953;48.810;9.204;2023-09-07T08:02:22;99088.50;;;38.41;24.20
13765;BME280;6953;48.810;9.204;2023-09-07T08:04:47;99093.09;;;38.52;24.19
13765;BME280;6953;48.810;9.204;2023-09-07T08:07:13;99090.72;;;39.10;23.37
13765;BME280;6953;48.810;9.204;2023-09-07T08:09:38;99012.00;;;38.77;23.09
13765;BME280;6953;48.810;9.204;2023-09-07T08:12:04;99097.63;;;39.93;22.38
13765;BME280;6953;48.810;9.204;2023-09-07T08:14:30;99115.78;;;39.51;23.11
13765;BME280;6953;48.810;9.204;2023-09-07T08:16:56;99088.72;;;39.05;23.43
13765;BME280;6953;48.810;9.204;2023-09-07T08:19:21;99085.13;;;39.59;22.83
13765;BME280;6953;48.810;9.204;2023-09-07T08:21:46;99083.41;;;39.53;22.42
13765;BME280;6953;48.810;9.204;2023-09-07T08:24:18;99086.19;;;40.01;21.97
13765;BME280;6953;48.810;9.204;2023-09-07T08:26:43;99088.53;;;40.40;21.90
13765;BME280;6953;48.810;9.204;2023-09-07T08:29:08;98952.69;;;39.67;21.88
13765;BME280;6953;48.810;9.204;2023-09-07T08:31:38;99059.03;;;40.67;21.07
13765;BME280;6953;48.810;9.204;2023-09-07T08:34:07;99077.38;;;40.88;21.52
13765;BME280;6953;48.810;9.204;2023-09-07T08:36:36;99090.06;;;40.58;21.76
13765;BME280;6953;48.810;9.204;2023-09-07T08:39:02;99030.25;;;40.48;21.18
13765;BME280;6953;48.810;9.204;2023-09-07T08:41:36;99084.75;;;41.19;21.47
13765;BME280;6953;48.810;9.204;2023-09-07T08:44:06;99100.75;;;41.73;20.89
13765;BME280;6953;48.810;9.204;2023-09-07T08:46:33;99096.69;;;41.86;20.18
13765;BME280;6953;48.810;9.204;2023-09-07T08:49:00;99096.69;;;41.86;20.29
13765;BME280;6953;48.810;9.204;2023-09-07T08:51:29;98999.81;;;41.62;20.69
13765;BME280;6953;48.810;9.204;2023-09-07T08:53:54;98990.16;;;41.70;19.71
13765;BME280;6953;48.810;9.204;2023-09-07T08:56:22;99096.75;;;42.01;19.70
13765;BME280;6953;48.810;9.204;2023-09-07T08:58:47;98951.28;;;41.66;20.09
13765;BME280;6953;48.810;9.204;2023-09-07T09:01:15;99095.75;;;42.46;19.55
13765;BME280;6953;48.810;9.204;2023-09-07T09:03:41;98940.00;;;41.01;19.94
13765;BME280;6953;48.810;9.204;2023-09-07T09:06:08;99065.88;;;42.28;19.60
13765;BME280;6953;48.810;9.204;2023-09-07T09:08:47;98957.69;;;42.36;19.06
13765;BME280;6953;48.810;9.204;2023-09-07T09:11:16;99116.94;;;43.60;18.78
13765;BME280;6953;48.810;9.204;2023-09-07T09:13:42;99103.59;;;43.72;18.49
13765;BME280;6953;48.810;9.204;2023-09-07T09:16:08;98950.16;;;43.50;18.64
13765;BME280;6953;48.810;9.204;2023-09-07T09:18:34;99102.53;;;44.93;17.76
13765;BME280;6953;48.810;9.204;2023-09-07T09:20:59;98997.09;;;44.46;17.91
13765;BME280;6953;48.810;9.204;2023-09-07T09:23:35;98942.16;;;44.25;18.10
13765;BME280;6953;48.810;9.204;2023-09-07T09:26:04;99067.56;;;45.49;17.45
13765;BME280;6953;48.810;9.204;2023-09-07T09:28:31;99089.66;;;45.36;17.64
13765;BME280;6953;48.810;9.204;2023-09-07T09:30:58;98929.75;;;43.41;18.18
13765;BME280;6953;48.810;9.204;2023-09-07T09:33:25;99079.53;;;44.21;18.21
13765;BME280;6953;48.810;9.204;2023-09-07T09:35:51;99063.69;;;44.65;18.50
13765;BME280;6953;48.810;9.204;2023-09-07T09:38:17;99086.19;;;44.58;18.20
13765;BME280;6953;48.810;9.204;2023-09-07T09:40:42;99076.63;;;44.41;18.28
13765;BME280;6953;48.810;9.204;2023-09-07T09:43:08;98914.75;;;42.94;18.52
13765;BME280;6953;48.810;9.204;2023-09-07T09:45:34;98930.53;;;42.88;18.82
13765;BME280;6953;48.810;9.204;2023-09-07T09:48:01;98921.66;;;43.98;18.05
13765;BME280;6953;48.810;9.204;2023-09-07T09:50:27;99065.41;;;46.43;16.76
13765;BME280;6953;48.810;9.204;2023-09-07T09:52:53;99069.69;;;47.31;16.13
13765;BME280;6953;48.810;9.204;2023-09-07T09:55:19;99053.22;;;47.62;15.57
13765;BME280;6953;48.810;9.204;2023-09-07T09:57:44;99064.53;;;46.79;16.12
13765;BME280;6953;48.810;9.204;2023-09-07T10:00:10;99057.03;;;46.11;17.49
13765;BME280;6953;48.810;9.204;2023-09-07T10:02:43;99068.41;;;46.65;16.46
13765;BME280;6953;48.810;9.204;2023-09-07T10:05:10;98946.06;;;45.28;16.85
13765;BME280;6953;48.810;9.204;2023-09-07T10:07:43;99079.22;;;46.48;16.61
13765;BME280;6953;48.810;9.204;2023-09-07T10:10:13;99062.44;;;46.21;16.63
13765;BME280;6953;48.810;9.204;2023-09-07T10:13:00;99054.47;;;46.33;16.82
13765;BME280;6953;48.810;9.204;2023-09-07T10:15:27;99057.47;;;46.37;17.09
13765;BME280;6953;48.810;9.204;2023-09-07T10:18:05;99055.03;;;47.12;16.13
13765;BME280;6953;48.810;9.204;2023-09-07T10:20:50;99058.50;;;48.12;15.75
13765;BME280;6953;48.810;9.204;2023-09-07T10:23:16;99076.00;;;47.90;16.03
13765;BME280;6953;48.810;9.204;2023-09-07T10:25:42;98907.66;;;46.85;15.86
13765;BME280;6953;48.810;9.204;2023-09-07T10:28:24;99059.00;;;46.61;16.56
13765;BME280;6953;48.810;9.204;2023-09-07T10:31:06;99025.13;;;46.59;16.83
13765;BME280;6953;48.810;9.204;2023-09-07T10:33:34;99049.66;;;46.89;16.63
13765;BME280;6953;48.810;9.204;2023-09-07T10:36:00;99038.84;;;47.14;16.58
13765;BME280;6953;48.810;9.204;2023-09-07T10:38:27;98935.94;;;47.41;15.66
13765;BME280;6953;48.810;9.204;2023-09-07T10:40:56;98892.28;;;47.85;15.17
13765;BME280;6953;48.810;9.204;2023-09-07T10:43:29;99034.25;;;48.48;15.37
13765;BME280;6953;48.810;9.204;2023-09-07T10:45:55;98875.06;;;47.26;15.68
13765;BME280;6953;48.810;9.204;2023-09-07T10:48:25;98976.44;;;48.92;15.06
13765;BME280;6953;48.810;9.204;2023-09-07T10:50:51;99016.91;;;49.42;14.68
13765;BME280;6953;48.810;9.204;2023-09-07T10:53:28;99027.00;;;49.77;14.08
13765;BME280;6953;48.810;9.204;2023-09-07T10:55:54;98987.91;;;49.77;14.48
13765;BME280;6953;48.810;9.204;2023-09-07T10:58:31;99006.97;;;50.17;13.91
13765;BME280;6953;48.810;9.204;2023-09-07T11:00:57;99011.34;;;50.86;13.19
13765;BME280;6953;48.810;9.204;2023-09-07T11:03:24;98983.47;;;51.43;12.81
13765;BME280;6953;48.810;9.204;2023-09-07T11:05:51;99021.41;;;51.61;12.78
13765;BME280;6953;48.810;9.204;2023-09-07T11:08:18;98907.44;;;50.67;13.04
13765;BME280;6953;48.810;9.204;2023-09-07T11:10:43;99017.84;;;51.15;13.05
13765;BME280;6953;48.810;9.204;2023-09-07T11:13:09;98956.63;;;51.42;13.04
13765;BME280;6953;48.810;9.204;2023-09-07T11:15:35;99026.06;;;52.07;12.50
13765;BME280;6953;48.810;9.204;2023-09-07T11:18:07;98879.59;;;51.08;13.07
13765;BME280;6953;48.810;9.204;2023-09-07T11:20:34;99007.19;;;51.37;13.24
13765;BME280;6953;48.810;9.204;2023-09-07T11:23:00;99005.28;;;51.58;13.05
13765;BME280;6953;48.810;9.204;2023-09-07T11:25:26;99002.78;;;51.36;12.93
13765;BME280;6953;48.810;9.204;2023-09-07T11:27:51;98865.50;;;49.87;13.15
13765;BME280;6953;48.810;9.204;2023-09-07T11:30:20;99002.59;;;50.33;13.18
13765;BME280;6953;48.810;9.204;2023-09-07T11:32:45;98981.25;;;49.30;14.10
13765;BME280;6953;48.810;9.204;2023-09-07T11:35:11;98978.28;;;49.44;14.06
13765;BME280;6953;48.810;9.204;2023-09-07T11:37:36;98989.06;;;50.52;13.53
13765;BME280;6953;48.810;9.204;2023-09-07T11:40:03;99001.69;;;50.75;13.57
13765;BME280;6953;48.810;9.204;2023-09-07T11:42:32;98979.31;;;50.58;13.62
13765;BME280;6953;48.810;9.204;2023-09-07T11:44:57;98978.25;;;50.08;13.67
13765;BME280;6953;48.810;9.204;2023-09-07T11:47:23;98963.75;;;49.72;13.81
13765;BME280;6953;48.810;9.204;2023-09-07T11:49:48;98986.09;;;49.81;14.19
13765;BME280;6953;48.810;9.204;2023-09-07T11:52:14;98793.66;;;48.86;13.66
13765;BME280;6953;48.810;9.204;2023-09-07T11:54:39;98971.31;;;49.89;14.26
13765;BME280;6953;48.810;9.204;2023-09-07T11:57:05;98938.13;;;48.23;15.15
13765;BME280;6953;48.810;9.204;2023-09-07T11:59:30;98948.66;;;48.04;15.41
13765;BME280;6953;48.810;9.204;2023-09-07T12:01:55;98913.38;;;49.21;14.39
13765;BME280;6953;48.810;9.204;2023-09-07T12:04:20;98785.59;;;48.76;13.98
13765;BME280;6953;48.810;9.204;2023-09-07T12:06:46;98958.44;;;49.37;14.43
13765;BME280;6953;48.810;9.204;2023-09-07T12:09:11;98954.22;;;49.17;13.84
13765;BME280;6953;48.810;9.204;2023-09-07T12:11:38;98797.72;;;48.33;14.38
13765;BME280;6953;48.810;9.204;2023-09-07T12:14:03;98954.22;;;49.90;14.09
13765;BME280;6953;48.810;9.204;2023-09-07T12:16:29;98972.41;;;49.54;13.42
13765;BME280;6953;48.810;9.204;2023-09-07T12:18:55;98949.31;;;49.70;13.89
13765;BME280;6953;48.810;9.204;2023-09-07T12:21:21;98795.88;;;49.48;13.21
13765;BME280;6953;48.810;9.204;2023-09-07T12:23:46;98930.13;;;50.57;13.03
13765;BME280;6953;48.810;9.204;2023-09-07T12:26:13;98954.88;;;50.12;13.40
13765;BME280;6953;48.810;9.204;2023-09-07T12:28:39;98959.47;;;50.17;13.37
13765;BME280;6953;48.810;9.204;2023-09-07T12:31:05;98889.31;;;50.10;13.60
13765;BME280;6953;48.810;9.204;2023-09-07T12:33:30;98943.72;;;50.04;13.04
13765;BME280;6953;48.810;9.204;2023-09-07T12:35:55;98944.81;;;49.52;13.54
13765;BME280;6953;48.810;9.204;2023-09-07T12:38:21;98946.00;;;49.85;13.20
13765;BME280;6953;48.810;9.204;2023-09-07T12:40:49;98947.34;;;49.96;13.14
13765;BME280;6953;48.810;9.204;2023-09-07T12:43:15;98940.09;;;50.12;13.09
13765;BME280;6953;48.810;9.204;2023-09-07T12:45:40;98789.56;;;49.94;12.91
13765;BME280;6953;48.810;9.204;2023-09-07T12:48:06;98934.16;;;50.13;13.37
13765;BME280;6953;48.810;9.204;2023-09-07T12:50:31;98930.69;;;48.93;14.05
13765;BME280;6953;48.810;9.204;2023-09-07T12:52:56;98901.41;;;49.21;14.17
13765;BME280;6953;48.810;9.204;2023-09-07T12:55:22;98917.94;;;49.73;13.87
13765;BME280;6953;48.810;9.204;2023-09-07T12:57:49;98916.66;;;49.23;14.92
13765;BME280;6953;48.810;9.204;2023-09-07T13:00:14;98919.00;;;48.91;14.51